sensor_id;sensor_type;location;lat;lon;timestamp;P1;durP1;ratioP1;P2;durP2;ratioP2
69404;SDS011;57084;52.046;5.632;2022-08-27T00:00:00;8.1;;;1.4;;
69404;SDS011;57084;52.046;5.632;2022-08-27T00:01:00;8.1;;;1.4;;
69404;SDS011;57084;52.046;5.632;2022-08-27T00:02:00;8.1;;;1.4;;
69404;SDS011;57084;52.046;5.632;2022-08-27T00:03:00;8.1;;;1.4;;
69404;SDS011;57084;52.046;5.632;2022-08-27T00:04:00;8.1;;;1.4;;
69404;SDS011;57084;52.046;5.632;2022-08-27T00:05:00;7.5;;;1.7;;
69404;SDS011;57084;52.046;5.632;2022-08-27T00:06:00;7.5;;;1.7;;
69404;SDS011;57084;52.046;5.632;2022-08-27T00:07:00;7.5;;;1.7;;
69404;SDS011;57084;52.046;5.632;2022-08-27T00:08:00;7.5;;;1.7;;
69404;SDS011;57084;52.046;5.632;2022-08-27T00:09:01;7.5;;;1.7;;
69404;SDS011;57084;52.046;5.632;2022-08-27T00:10:00;6.5;;;1.6;;
69404;SDS011;57084;52.046;5.632;2022-08-27T00:11:00;6.5;;;1.6;;
69404;SDS011;57084;52.046;5.632;2022-08-27T00:12:00;6.5;;;1.6;;
69404;SDS011;57084;52.046;5.632;2022-08-27T00:13:00;6.5;;;1.6;;
69404;SDS011;57084;52.046;5.632;2022-08-27T00:14:00;6.5;;;1.6;;
69404;SDS011;57084;52.046;5.632;2022-08-27T00:15:01;7.1;;;1.5;;
69404;SDS011;57084;52.046;5.632;2022-08-27T00:16:00;7.1;;;1.5;;
69404;SDS011;57084;52.046;5.632;2022-08-27T00:17:00;7.1;;;1.5;;
69404;SDS011;57084;52.046;5.632;2022-08-27T00:18:00;7.1;;;1.5;;
69404;SDS011;57084;52.046;5.632;2022-08-27T00:19:00;7.1;;;1.5;;
69404;SDS011;57084;52.046;5.632;2022-08-27T00:20:00;7.0;;;1.9;;
69404;SDS011;57084;52.046;5.632;2022-08-27T00:21:00;7.0;;;1.9;;
69404;SDS011;57084;52.046;5.632;2022-08-27T00:22:00;7.0;;;1.9;;
69404;SDS011;57084;52.046;5.632;2022-08-27T00:23:00;7.0;;;1.9;;
69404;SDS011;57084;52.046;5.632;2022-08-27T00:24:00;7.0;;;1.9;;
69404;SDS011;57084;52.046;5.632;2022-08-27T00:25:00;8.4;;;1.9;;
69404;SDS011;57084;52.046;5.632;2022-08-27T00:26:00;8.4;;;1.9;;
69404;SDS011;57084;52.046;5.632;2022-08-27T00:27:00;8.4;;;1.9;;
69404;SDS011;57084;52.046;5.632;2022-08-27T00:28:00;8.4;;;1.9;;
69404;SDS011;57084;52.046;5.632;2022-08-27T00:29:00;8.4;;;1.9;;
69404;SDS011;57084;52.046;5.632;2022-08-27T00:30:00;9.8;;;1.6;;
69404;SDS011;57084;52.046;5.632;2022-08-27T00:31:00;9.8;;;1.6;;
69404;SDS011;57084;52.046;5.632;2022-08-27T00:32:00;9.8;;;1.6;;
69404;SDS011;57084;52.046;5.632;2022-08-27T00:33:00;9.8;;;1.6;;
69404;SDS011;57084;52.046;5.632;2022-08-27T00:34:00;9.8;;;1.6;;
69404;SDS011;57084;52.046;5.632;2022-08-27T00:35:00;7.8;;;1.7;;
69404;SDS011;57084;52.046;5.632;2022-08-27T00:36:02;7.8;;;1.7;;
69404;SDS011;57084;52.046;5.632;2022-08-27T00:37:00;7.8;;;1.7;;
69404;SDS011;57084;52.046;5.632;2022-08-27T00:38:00;7.8;;;1.7;;
69404;SDS011;57084;52.046;5.632;2022-08-27T00:39:00;7.8;;;1.7;;
69404;SDS011;57084;52.046;5.632;2022-08-27T00:40:00;6.5;;;1.6;;
69404;SDS011;57084;52.046;5.632;2022-08-27T00:41:00;6.5;;;1.6;;
69404;SDS011;57084;52.046;5.632;2022-08-27T00:42:00;6.5;;;1.6;;
69404;SDS011;57084;52.046;5.632;2022-08-27T00:43:00;6.5;;;1.6;;
69404;SDS011;57084;52.046;5.632;2022-08-27T00:44:01;6.5;;;1.6;;
69404;SDS011;57084;52.046;5.632;2022-08-27T00:45:00;5.8;;;1.8;;
69404;SDS011;57084;52.046;5.632;2022-08-27T00:46:07;5.8;;;1.8;;
69404;SDS011;57084;52.046;5.632;2022-08-27T00:47:03;5.8;;;1.8;;
69404;SDS011;57084;52.046;5.632;2022-08-27T00:48:00;5.8;;;1.8;;
69404;SDS011;57084;52.046;5.632;2022-08-27T00:49:04;5.8;;;1.8;;
69404;SDS011;57084;52.046;5.632;2022-08-27T00:50:04;7.4;;;2.1;;
69404;SDS011;57084;52.046;5.632;2022-08-27T00:51:01;7.4;;;2.1;;
69404;SDS011;57084;52.046;5.632;2022-08-27T00:52:04;7.4;;;2.1;;
69404;SDS011;57084;52.046;5.632;2022-08-27T00:53:04;7.4;;;2.1;;
69404;SDS011;57084;52.046;5.632;2022-08-27T00:54:01;7.4;;;2.1;;
69404;SDS011;57084;52.046;5.632;2022-08-27T00:55:04;5.7;;;1.8;;
69404;SDS011;57084;52.046;5.632;2022-08-27T00:56:04;5.7;;;1.8;;
69404;SDS011;57084;52.046;5.632;2022-08-27T00:57:00;5.7;;;1.8;;
69404;SDS011;57084;52.046;5.632;2022-08-27T00:58:04;5.7;;;1.8;;
69404;SDS011;57084;52.046;5.632;2022-08-27T00:59:01;5.7;;;1.8;;
69404;SDS011;57084;52.046;5.632;2022-08-27T01:00:00;6.1;;;1.9;;
69404;SDS011;57084;52.046;5.632;2022-08-27T01:01:00;6.1;;;1.9;;
69404;SDS011;57084;52.046;5.632;2022-08-27T01:02:00;6.1;;;1.9;;
69404;SDS011;57084;52.046;5.632;2022-08-27T01:03:00;6.1;;;1.9;;
69404;SDS011;57084;52.046;5.632;2022-08-27T01:04:03;6.1;;;1.9;;
69404;SDS011;57084;52.046;5.632;2022-08-27T01:05:03;6.2;;;1.8;;
69404;SDS011;57084;52.046;5.632;2022-08-27T01:06:02;6.2;;;1.8;;
69404;SDS011;57084;52.046;5.632;2022-08-27T01:07:01;6.2;;;1.8;;
69404;SDS011;57084;52.046;5.632;2022-08-27T01:08:03;6.2;;;1.8;;
69404;SDS011;57084;52.046;5.632;2022-08-27T01:09:03;6.2;;;1.8;;
69404;SDS011;57084;52.046;5.632;2022-08-27T01:10:02;6.2;;;1.8;;
69404;SDS011;57084;52.046;5.632;2022-08-27T01:11:00;8.7;;;2.2;;
69404;SDS011;57084;52.046;5.632;2022-08-27T01:12:01;8.7;;;2.2;;
69404;SDS011;57084;52.046;5.632;2022-08-27T01:13:00;8.7;;;2.2;;
69404;SDS011;57084;52.046;5.632;2022-08-27T01:14:01;8.7;;;2.2;;
69404;SDS011;57084;52.046;5.632;2022-08-27T01:15:03;8.7;;;2.2;;
69404;SDS011;57084;52.046;5.632;2022-08-27T01:16:00;6.1;;;2.1;;
69404;SDS011;57084;52.046;5.632;2022-08-27T01:17:01;6.1;;;2.1;;
69404;SDS011;57084;52.046;5.632;2022-08-27T01:18:02;6.1;;;2.1;;
69404;SDS011;57084;52.046;5.632;2022-08-27T01:19:02;6.1;;;2.1;;
69404;SDS011;57084;52.046;5.632;2022-08-27T01:20:03;6.1;;;2.1;;
69404;SDS011;57084;52.046;5.632;2022-08-27T01:21:04;6.1;;;2.0;;
69404;SDS011;57084;52.046;5.632;2022-08-27T01:22:06;6.1;;;2.0;;
69404;SDS011;57084;52.046;5.632;2022-08-27T01:23:06;6.1;;;2.0;;
69404;SDS011;57084;52.046;5.632;2022-08-27T01:24:05;6.1;;;2.0;;
69404;SDS011;57084;52.046;5.632;2022-08-27T01:25:05;6.1;;;2.0;;
69404;SDS011;57084;52.046;5.632;2022-08-27T01:26:01;9.1;;;2.4;;
69404;SDS011;57084;52.046;5.632;2022-08-27T01:27:01;9.1;;;2.4;;
69404;SDS011;57084;52.046;5.632;2022-08-27T01:28:02;9.1;;;2.4;;
69404;SDS011;57084;52.046;5.632;2022-08-27T01:29:00;9.1;;;2.4;;
69404;SDS011;57084;52.046;5.632;2022-08-27T01:30:00;9.1;;;2.4;;
69404;SDS011;57084;52.046;5.632;2022-08-27T01:31:00;7.6;;;2.4;;
69404;SDS011;57084;52.046;5.632;2022-08-27T01:32:06;7.6;;;2.4;;
69404;SDS011;57084;52.046;5.632;2022-08-27T01:33:00;7.6;;;2.4;;
69404;SDS011;57084;52.046;5.632;2022-08-27T01:34:03;7.6;;;2.4;;
69404;SDS011;57084;52.046;5.632;2022-08-27T01:35:02;7.6;;;2.4;;
69404;SDS011;57084;52.046;5.632;2022-08-27T01:36:00;6.6;;;2.2;;
69404;SDS011;57084;52.046;5.632;2022-08-27T01:37:00;6.6;;;2.2;;
69404;SDS011;57084;52.046;5.632;2022-08-27T01:38:00;6.6;;;2.2;;
69404;SDS011;57084;52.046;5.632;2022-08-27T01:39:00;6.6;;;2.2;;
69404;SDS011;57084;52.046;5.632;2022-08-27T01:40:01;6.6;;;2.2;;
69404;SDS011;57084;52.046;5.632;2022-08-27T01:41:00;8.6;;;2.5;;
69404;SDS011;57084;52.046;5.632;2022-08-27T01:42:03;8.6;;;2.5;;
69404;SDS011;57084;52.046;5.632;2022-08-27T01:43:00;8.6;;;2.5;;
69404;SDS011;57084;52.046;5.632;2022-08-27T01:44:00;8.6;;;2.5;;
69404;SDS011;57084;52.046;5.632;2022-08-27T01:45:03;8.6;;;2.5;;
69404;SDS011;57084;52.046;5.632;2022-08-27T01:46:00;8.2;;;2.7;;
69404;SDS011;57084;52.046;5.632;2022-08-27T01:47:00;8.2;;;2.7;;
69404;SDS011;57084;52.046;5.632;2022-08-27T01:48:01;8.2;;;2.7;;
69404;SDS011;57084;52.046;5.632;2022-08-27T01:49:00;8.2;;;2.7;;
69404;SDS011;57084;52.046;5.632;2022-08-27T01:50:00;8.2;;;2.7;;
69404;SDS011;57084;52.046;5.632;2022-08-27T01:51:00;5.2;;;2.3;;
69404;SDS011;57084;52.046;5.632;2022-08-27T01:52:00;5.2;;;2.3;;
69404;SDS011;57084;52.046;5.632;2022-08-27T01:53:01;5.2;;;2.3;;
69404;SDS011;57084;52.046;5.632;2022-08-27T01:54:00;5.2;;;2.3;;
69404;SDS011;57084;52.046;5.632;2022-08-27T01:55:00;5.2;;;2.3;;
69404;SDS011;57084;52.046;5.632;2022-08-27T01:56:00;7.1;;;2.5;;
69404;SDS011;57084;52.046;5.632;2022-08-27T01:57:00;7.1;;;2.5;;
69404;SDS011;57084;52.046;5.632;2022-08-27T01:58:00;7.1;;;2.5;;
69404;SDS011;57084;52.046;5.632;2022-08-27T01:59:00;7.1;;;2.5;;
69404;SDS011;57084;52.046;5.632;2022-08-27T02:00:00;7.1;;;2.5;;
69404;SDS011;57084;52.046;5.632;2022-08-27T02:01:03;10.6;;;2.6;;
69404;SDS011;57084;52.046;5.632;2022-08-27T02:02:00;10.6;;;2.6;;
69404;SDS011;57084;52.046;5.632;2022-08-27T02:03:01;10.6;;;2.6;;
69404;SDS011;57084;52.046;5.632;2022-08-27T02:04:00;10.6;;;2.6;;
69404;SDS011;57084;52.046;5.632;2022-08-27T02:05:00;10.6;;;2.6;;
69404;SDS011;57084;52.046;5.632;2022-08-27T02:06:03;8.4;;;2.8;;
69404;SDS011;57084;52.046;5.632;2022-08-27T02:07:00;8.4;;;2.8;;
69404;SDS011;57084;52.046;5.632;2022-08-27T02:08:00;8.4;;;2.8;;
69404;SDS011;57084;52.046;5.632;2022-08-27T02:09:00;8.4;;;2.8;;
69404;SDS011;57084;52.046;5.632;2022-08-27T02:10:00;8.4;;;2.8;;
69404;SDS011;57084;52.046;5.632;2022-08-27T02:11:00;8.2;;;2.7;;
69404;SDS011;57084;52.046;5.632;2022-08-27T02:12:00;8.2;;;2.7;;
69404;SDS011;57084;52.046;5.632;2022-08-27T02:13:00;8.2;;;2.7;;
69404;SDS011;57084;52.046;5.632;2022-08-27T02:14:00;8.2;;;2.7;;
69404;SDS011;57084;52.046;5.632;2022-08-27T02:15:00;8.2;;;2.7;;
69404;SDS011;57084;52.046;5.632;2022-08-27T02:16:00;6.3;;;2.6;;
69404;SDS011;57084;52.046;5.632;2022-08-27T02:17:00;6.3;;;2.6;;
69404;SDS011;57084;52.046;5.632;2022-08-27T02:18:00;6.3;;;2.6;;
69404;SDS011;57084;52.046;5.632;2022-08-27T02:19:00;6.3;;;2.6;;
69404;SDS011;57084;52.046;5.632;2022-08-27T02:20:00;6.3;;;2.6;;
69404;SDS011;57084;52.046;5.632;2022-08-27T02:21:00;9.1;;;2.8;;
69404;SDS011;57084;52.046;5.632;2022-08-27T02:22:00;9.1;;;2.8;;
69404;SDS011;57084;52.046;5.632;2022-08-27T02:23:01;9.1;;;2.8;;
69404;SDS011;57084;52.046;5.632;2022-08-27T02:24:00;9.1;;;2.8;;
69404;SDS011;57084;52.046;5.632;2022-08-27T02:25:00;9.1;;;2.8;;
69404;SDS011;57084;52.046;5.632;2022-08-27T02:26:00;8.3;;;2.6;;
69404;SDS011;57084;52.046;5.632;2022-08-27T02:27:00;8.3;;;2.6;;
69404;SDS011;57084;52.046;5.632;2022-08-27T02:28:00;8.3;;;2.6;;
69404;SDS011;57084;52.046;5.632;2022-08-27T02:29:00;8.3;;;2.6;;
69404;SDS011;57084;52.046;5.632;2022-08-27T02:30:00;8.3;;;2.6;;
69404;SDS011;57084;52.046;5.632;2022-08-27T02:31:00;8.6;;;2.8;;
69404;SDS011;57084;52.046;5.632;2022-08-27T02:32:00;8.6;;;2.8;;
69404;SDS011;57084;52.046;5.632;2022-08-27T02:33:01;8.6;;;2.8;;
69404;SDS011;57084;52.046;5.632;2022-08-27T02:34:00;8.6;;;2.8;;
69404;SDS011;57084;52.046;5.632;2022-08-27T02:35:00;8.6;;;2.8;;
69404;SDS011;57084;52.046;5.632;2022-08-27T02:36:00;7.5;;;2.5;;
69404;SDS011;57084;52.046;5.632;2022-08-27T02:37:00;7.5;;;2.5;;
69404;SDS011;57084;52.046;5.632;2022-08-27T02:38:00;7.5;;;2.5;;
69404;SDS011;57084;52.046;5.632;2022-08-27T02:39:00;7.5;;;2.5;;
69404;SDS011;57084;52.046;5.632;2022-08-27T02:40:00;7.5;;;2.5;;
69404;SDS011;57084;52.046;5.632;2022-08-27T02:41:00;8.7;;;2.4;;
69404;SDS011;57084;52.046;5.632;2022-08-27T02:42:00;8.7;;;2.4;;
69404;SDS011;57084;52.046;5.632;2022-08-27T02:43:00;8.7;;;2.4;;
69404;SDS011;57084;52.046;5.632;2022-08-27T02:44:00;8.7;;;2.4;;
69404;SDS011;57084;52.046;5.632;2022-08-27T02:45:00;8.7;;;2.4;;
69404;SDS011;57084;52.046;5.632;2022-08-27T02:46:00;8.7;;;2.8;;
69404;SDS011;57084;52.046;5.632;2022-08-27T02:47:00;8.7;;;2.8;;
69404;SDS011;57084;52.046;5.632;2022-08-27T02:48:00;8.7;;;2.8;;
69404;SDS011;57084;52.046;5.632;2022-08-27T02:49:00;8.7;;;2.8;;
69404;SDS011;57084;52.046;5.632;2022-08-27T02:50:00;8.7;;;2.8;;
69404;SDS011;57084;52.046;5.632;2022-08-27T02:51:00;8.2;;;2.8;;
69404;SDS011;57084;52.046;5.632;2022-08-27T02:52:00;8.2;;;2.8;;
69404;SDS011;57084;52.046;5.632;2022-08-27T02:53:01;8.2;;;2.8;;
69404;SDS011;57084;52.046;5.632;2022-08-27T02:54:00;8.2;;;2.8;;
69404;SDS011;57084;52.046;5.632;2022-08-27T02:55:00;8.2;;;2.8;;
69404;SDS011;57084;52.046;5.632;2022-08-27T02:56:00;11.0;;;3.1;;
69404;SDS011;57084;52.046;5.632;2022-08-27T02:57:00;11.0;;;3.1;;
69404;SDS011;57084;52.046;5.632;2022-08-27T02:58:00;11.0;;;3.1;;
69404;SDS011;57084;52.046;5.632;2022-08-27T02:59:00;11.0;;;3.1;;
69404;SDS011;57084;52.046;5.632;2022-08-27T03:00:00;11.0;;;3.1;;
69404;SDS011;57084;52.046;5.632;2022-08-27T03:01:00;8.4;;;2.7;;
69404;SDS011;57084;52.046;5.632;2022-08-27T03:02:00;8.4;;;2.7;;
69404;SDS011;57084;52.046;5.632;2022-08-27T03:03:01;8.4;;;2.7;;
69404;SDS011;57084;52.046;5.632;2022-08-27T03:04:00;8.4;;;2.7;;
69404;SDS011;57084;52.046;5.632;2022-08-27T03:05:00;8.4;;;2.7;;
69404;SDS011;57084;52.046;5.632;2022-08-27T03:06:00;7.8;;;2.7;;
69404;SDS011;57084;52.046;5.632;2022-08-27T03:07:00;7.8;;;2.7;;
69404;SDS011;57084;52.046;5.632;2022-08-27T03:08:00;7.8;;;2.7;;
69404;SDS011;57084;52.046;5.632;2022-08-27T03:09:00;7.8;;;2.7;;
69404;SDS011;57084;52.046;5.632;2022-08-27T03:10:00;7.8;;;2.7;;
69404;SDS011;57084;52.046;5.632;2022-08-27T03:11:00;8.2;;;2.7;;
69404;SDS011;57084;52.046;5.632;2022-08-27T03:12:00;8.2;;;2.7;;
69404;SDS011;57084;52.046;5.632;2022-08-27T03:13:00;8.2;;;2.7;;
69404;SDS011;57084;52.046;5.632;2022-08-27T03:14:00;8.2;;;2.7;;
69404;SDS011;57084;52.046;5.632;2022-08-27T03:15:00;8.2;;;2.7;;
69404;SDS011;57084;52.046;5.632;2022-08-27T03:16:00;8.2;;;2.7;;
69404;SDS011;57084;52.046;5.632;2022-08-27T03:17:00;7.4;;;2.8;;
69404;SDS011;57084;52.046;5.632;2022-08-27T03:18:00;7.4;;;2.8;;
69404;SDS011;57084;52.046;5.632;2022-08-27T03:19:00;7.4;;;2.8;;
69404;SDS011;57084;52.046;5.632;2022-08-27T03:20:00;7.4;;;2.8;;
69404;SDS011;57084;52.046;5.632;2022-08-27T03:21:00;7.4;;;2.8;;
69404;SDS011;57084;52.046;5.632;2022-08-27T03:22:00;10.1;;;3.0;;
69404;SDS011;57084;52.046;5.632;2022-08-27T03:23:00;10.1;;;3.0;;
69404;SDS011;57084;52.046;5.632;2022-08-27T03:24:00;10.1;;;3.0;;
69404;SDS011;57084;52.046;5.632;2022-08-27T03:25:00;10.1;;;3.0;;
69404;SDS011;57084;52.046;5.632;2022-08-27T03:26:02;10.1;;;3.0;;
69404;SDS011;57084;52.046;5.632;2022-08-27T03:27:00;8.3;;;3.0;;
69404;SDS011;57084;52.046;5.632;2022-08-27T03:28:00;8.3;;;3.0;;
69404;SDS011;57084;52.046;5.632;2022-08-27T03:29:00;8.3;;;3.0;;
69404;SDS011;57084;52.046;5.632;2022-08-27T03:30:00;8.3;;;3.0;;
69404;SDS011;57084;52.046;5.632;2022-08-27T03:31:03;8.3;;;3.0;;
69404;SDS011;57084;52.046;5.632;2022-08-27T03:32:00;8.3;;;2.8;;
69404;SDS011;57084;52.046;5.632;2022-08-27T03:33:00;8.3;;;2.8;;
69404;SDS011;57084;52.046;5.632;2022-08-27T03:34:03;8.3;;;2.8;;
69404;SDS011;57084;52.046;5.632;2022-08-27T03:35:00;8.3;;;2.8;;
69404;SDS011;57084;52.046;5.632;2022-08-27T03:36:00;8.3;;;2.8;;
69404;SDS011;57084;52.046;5.632;2022-08-27T03:37:00;8.8;;;2.9;;
69404;SDS011;57084;52.046;5.632;2022-08-27T03:38:00;8.8;;;2.9;;
69404;SDS011;57084;52.046;5.632;2022-08-27T03:39:00;8.8;;;2.9;;
69404;SDS011;57084;52.046;5.632;2022-08-27T03:40:00;8.8;;;2.9;;
69404;SDS011;57084;52.046;5.632;2022-08-27T03:41:00;8.8;;;2.9;;
69404;SDS011;57084;52.046;5.632;2022-08-27T03:42:00;8.2;;;2.8;;
69404;SDS011;57084;52.046;5.632;2022-08-27T03:43:00;8.2;;;2.8;;
69404;SDS011;57084;52.046;5.632;2022-08-27T03:44:00;8.2;;;2.8;;
69404;SDS011;57084;52.046;5.632;2022-08-27T03:45:00;8.2;;;2.8;;
69404;SDS011;57084;52.046;5.632;2022-08-27T03:46:00;8.2;;;2.8;;
69404;SDS011;57084;52.046;5.632;2022-08-27T03:47:00;9.3;;;2.6;;
69404;SDS011;57084;52.046;5.632;2022-08-27T03:48:00;9.3;;;2.6;;
69404;SDS011;57084;52.046;5.632;2022-08-27T03:49:00;9.3;;;2.6;;
69404;SDS011;57084;52.046;5.632;2022-08-27T03:50:00;9.3;;;2.6;;
69404;SDS011;57084;52.046;5.632;2022-08-27T03:51:03;9.3;;;2.6;;
69404;SDS011;57084;52.046;5.632;2022-08-27T03:52:00;7.7;;;2.6;;
69404;SDS011;57084;52.046;5.632;2022-08-27T03:53:00;7.7;;;2.6;;
69404;SDS011;57084;52.046;5.632;2022-08-27T03:54:00;7.7;;;2.6;;
69404;SDS011;57084;52.046;5.632;2022-08-27T03:55:00;7.7;;;2.6;;
69404;SDS011;57084;52.046;5.632;2022-08-27T03:56:00;7.7;;;2.6;;
69404;SDS011;57084;52.046;5.632;2022-08-27T03:57:00;7.3;;;2.9;;
69404;SDS011;57084;52.046;5.632;2022-08-27T03:58:00;7.3;;;2.9;;
69404;SDS011;57084;52.046;5.632;2022-08-27T03:59:00;7.3;;;2.9;;
69404;SDS011;57084;52.046;5.632;2022-08-27T04:00:00;7.3;;;2.9;;
69404;SDS011;57084;52.046;5.632;2022-08-27T04:01:00;7.3;;;2.9;;
69404;SDS011;57084;52.046;5.632;2022-08-27T04:02:00;12.5;;;3.3;;
69404;SDS011;57084;52.046;5.632;2022-08-27T04:03:00;12.5;;;3.3;;
69404;SDS011;57084;52.046;5.632;2022-08-27T04:04:00;12.5;;;3.3;;
69404;SDS011;57084;52.046;5.632;2022-08-27T04:05:00;12.5;;;3.3;;
69404;SDS011;57084;52.046;5.632;2022-08-27T04:06:00;12.5;;;3.3;;
69404;SDS011;57084;52.046;5.632;2022-08-27T04:07:00;7.4;;;3.1;;
69404;SDS011;57084;52.046;5.632;2022-08-27T04:08:00;7.4;;;3.1;;
69404;SDS011;57084;52.046;5.632;2022-08-27T04:09:00;7.4;;;3.1;;
69404;SDS011;57084;52.046;5.632;2022-08-27T04:10:00;7.4;;;3.1;;
69404;SDS011;57084;52.046;5.632;2022-08-27T04:11:04;7.4;;;3.1;;
69404;SDS011;57084;52.046;5.632;2022-08-27T04:12:00;8.3;;;3.1;;
69404;SDS011;57084;52.046;5.632;2022-08-27T04:13:00;8.3;;;3.1;;
69404;SDS011;57084;52.046;5.632;2022-08-27T04:14:02;8.3;;;3.1;;
69404;SDS011;57084;52.046;5.632;2022-08-27T04:15:00;8.3;;;3.1;;
69404;SDS011;57084;52.046;5.632;2022-08-27T04:16:00;8.3;;;3.1;;
69404;SDS011;57084;52.046;5.632;2022-08-27T04:17:00;6.5;;;3.0;;
69404;SDS011;57084;52.046;5.632;2022-08-27T04:18:00;6.5;;;3.0;;
69404;SDS011;57084;52.046;5.632;2022-08-27T04:19:00;6.5;;;3.0;;
69404;SDS011;57084;52.046;5.632;2022-08-27T04:20:00;6.5;;;3.0;;
69404;SDS011;57084;52.046;5.632;2022-08-27T04:21:06;6.5;;;3.0;;
69404;SDS011;57084;52.046;5.632;2022-08-27T04:22:01;8.1;;;3.1;;
69404;SDS011;57084;52.046;5.632;2022-08-27T04:23:00;8.1;;;3.1;;
69404;SDS011;57084;52.046;5.632;2022-08-27T04:24:00;8.1;;;3.1;;
69404;SDS011;57084;52.046;5.632;2022-08-27T04:25:00;8.1;;;3.1;;
69404;SDS011;57084;52.046;5.632;2022-08-27T04:26:03;8.1;;;3.1;;
69404;SDS011;57084;52.046;5.632;2022-08-27T04:27:01;10.3;;;3.0;;
69404;SDS011;57084;52.046;5.632;2022-08-27T04:28:00;10.3;;;3.0;;
69404;SDS011;57084;52.046;5.632;2022-08-27T04:29:00;10.3;;;3.0;;
69404;SDS011;57084;52.046;5.632;2022-08-27T04:30:00;10.3;;;3.0;;
69404;SDS011;57084;52.046;5.632;2022-08-27T04:31:01;10.3;;;3.0;;
69404;SDS011;57084;52.046;5.632;2022-08-27T04:32:00;8.0;;;3.5;;
69404;SDS011;57084;52.046;5.632;2022-08-27T04:33:00;8.0;;;3.5;;
69404;SDS011;57084;52.046;5.632;2022-08-27T04:34:00;8.0;;;3.5;;
69404;SDS011;57084;52.046;5.632;2022-08-27T04:35:00;8.0;;;3.5;;
69404;SDS011;57084;52.046;5.632;2022-08-27T04:36:04;8.0;;;3.5;;
69404;SDS011;57084;52.046;5.632;2022-08-27T04:37:00;7.8;;;2.9;;
69404;SDS011;57084;52.046;5.632;2022-08-27T04:38:00;7.8;;;2.9;;
69404;SDS011;57084;52.046;5.632;2022-08-27T04:39:00;7.8;;;2.9;;
69404;SDS011;57084;52.046;5.632;2022-08-27T04:40:00;7.8;;;2.9;;
69404;SDS011;57084;52.046;5.632;2022-08-27T04:41:01;7.8;;;2.9;;
69404;SDS011;57084;52.046;5.632;2022-08-27T04:42:00;9.3;;;3.4;;
69404;SDS011;57084;52.046;5.632;2022-08-27T04:43:00;9.3;;;3.4;;
69404;SDS011;57084;52.046;5.632;2022-08-27T04:44:02;9.3;;;3.4;;
69404;SDS011;57084;52.046;5.632;2022-08-27T04:45:00;9.3;;;3.4;;
69404;SDS011;57084;52.046;5.632;2022-08-27T04:46:00;9.3;;;3.4;;
69404;SDS011;57084;52.046;5.632;2022-08-27T04:47:02;9.0;;;3.1;;
69404;SDS011;57084;52.046;5.632;2022-08-27T04:48:00;9.0;;;3.1;;
69404;SDS011;57084;52.046;5.632;2022-08-27T04:49:03;9.0;;;3.1;;
69404;SDS011;57084;52.046;5.632;2022-08-27T04:50:00;9.0;;;3.1;;
69404;SDS011;57084;52.046;5.632;2022-08-27T04:51:00;9.0;;;3.1;;
69404;SDS011;57084;52.046;5.632;2022-08-27T04:52:00;6.6;;;3.0;;
69404;SDS011;57084;52.046;5.632;2022-08-27T04:53:00;6.6;;;3.0;;
69404;SDS011;57084;52.046;5.632;2022-08-27T04:54:02;6.6;;;3.0;;
69404;SDS011;57084;52.046;5.632;2022-08-27T04:55:00;6.6;;;3.0;;
69404;SDS011;57084;52.046;5.632;2022-08-27T04:56:00;6.6;;;3.0;;
69404;SDS011;57084;52.046;5.632;2022-08-27T04:57:01;13.6;;;3.3;;
69404;SDS011;57084;52.046;5.632;2022-08-27T04:58:00;13.6;;;3.3;;
69404;SDS011;57084;52.046;5.632;2022-08-27T04:59:00;13.6;;;3.3;;
69404;SDS011;57084;52.046;5.632;2022-08-27T05:00:00;13.6;;;3.3;;
69404;SDS011;57084;52.046;5.632;2022-08-27T05:01:00;13.6;;;3.3;;
69404;SDS011;57084;52.046;5.632;2022-08-27T05:02:00;8.3;;;3.5;;
69404;SDS011;57084;52.046;5.632;2022-08-27T05:03:00;8.3;;;3.5;;
69404;SDS011;57084;52.046;5.632;2022-08-27T05:04:00;8.3;;;3.5;;
69404;SDS011;57084;52.046;5.632;2022-08-27T05:05:00;8.3;;;3.5;;
69404;SDS011;57084;52.046;5.632;2022-08-27T05:06:02;8.3;;;3.5;;
69404;SDS011;57084;52.046;5.632;2022-08-27T05:07:00;12.0;;;3.6;;
69404;SDS011;57084;52.046;5.632;2022-08-27T05:08:00;12.0;;;3.6;;
69404;SDS011;57084;52.046;5.632;2022-08-27T05:09:00;12.0;;;3.6;;
69404;SDS011;57084;52.046;5.632;2022-08-27T05:10:00;12.0;;;3.6;;
69404;SDS011;57084;52.046;5.632;2022-08-27T05:11:00;12.0;;;3.6;;
69404;SDS011;57084;52.046;5.632;2022-08-27T05:12:00;10.1;;;3.0;;
69404;SDS011;57084;52.046;5.632;2022-08-27T05:13:00;10.1;;;3.0;;
69404;SDS011;57084;52.046;5.632;2022-08-27T05:14:01;10.1;;;3.0;;
69404;SDS011;57084;52.046;5.632;2022-08-27T05:15:00;10.1;;;3.0;;
69404;SDS011;57084;52.046;5.632;2022-08-27T05:16:02;10.1;;;3.0;;
69404;SDS011;57084;52.046;5.632;2022-08-27T05:17:00;8.6;;;3.1;;
69404;SDS011;57084;52.046;5.632;2022-08-27T05:18:00;8.6;;;3.1;;
69404;SDS011;57084;52.046;5.632;2022-08-27T05:19:00;8.6;;;3.1;;
69404;SDS011;57084;52.046;5.632;2022-08-27T05:20:00;8.6;;;3.1;;
69404;SDS011;57084;52.046;5.632;2022-08-27T05:21:00;8.6;;;3.1;;
69404;SDS011;57084;52.046;5.632;2022-08-27T05:22:00;9.5;;;3.3;;
69404;SDS011;57084;52.046;5.632;2022-08-27T05:23:00;9.5;;;3.3;;
69404;SDS011;57084;52.046;5.632;2022-08-27T05:24:03;9.5;;;3.3;;
69404;SDS011;57084;52.046;5.632;2022-08-27T05:25:00;9.5;;;3.3;;
69404;SDS011;57084;52.046;5.632;2022-08-27T05:26:00;9.5;;;3.3;;
69404;SDS011;57084;52.046;5.632;2022-08-27T05:27:00;9.5;;;3.3;;
69404;SDS011;57084;52.046;5.632;2022-08-27T05:28:00;10.7;;;3.6;;
69404;SDS011;57084;52.046;5.632;2022-08-27T05:29:00;10.7;;;3.6;;
69404;SDS011;57084;52.046;5.632;2022-08-27T05:30:00;10.7;;;3.6;;
69404;SDS011;57084;52.046;5.632;2022-08-27T05:31:03;10.7;;;3.6;;
69404;SDS011;57084;52.046;5.632;2022-08-27T05:32:00;10.7;;;3.6;;
69404;SDS011;57084;52.046;5.632;2022-08-27T05:33:00;8.9;;;3.0;;
69404;SDS011;57084;52.046;5.632;2022-08-27T05:34:00;8.9;;;3.0;;
69404;SDS011;57084;52.046;5.632;2022-08-27T05:35:00;8.9;;;3.0;;
69404;SDS011;57084;52.046;5.632;2022-08-27T05:36:00;8.9;;;3.0;;
69404;SDS011;57084;52.046;5.632;2022-08-27T05:37:00;8.9;;;3.0;;
69404;SDS011;57084;52.046;5.632;2022-08-27T05:38:00;12.8;;;2.9;;
69404;SDS011;57084;52.046;5.632;2022-08-27T05:39:02;12.8;;;2.9;;
69404;SDS011;57084;52.046;5.632;2022-08-27T05:40:01;12.8;;;2.9;;
69404;SDS011;57084;52.046;5.632;2022-08-27T05:41:02;12.8;;;2.9;;
69404;SDS011;57084;52.046;5.632;2022-08-27T05:42:00;12.8;;;2.9;;
69404;SDS011;57084;52.046;5.632;2022-08-27T05:43:00;9.3;;;3.0;;
69404;SDS011;57084;52.046;5.632;2022-08-27T05:44:02;9.3;;;3.0;;
69404;SDS011;57084;52.046;5.632;2022-08-27T05:45:00;9.3;;;3.0;;
69404;SDS011;57084;52.046;5.632;2022-08-27T05:46:03;9.3;;;3.0;;
69404;SDS011;57084;52.046;5.632;2022-08-27T05:47:01;9.3;;;3.0;;
69404;SDS011;57084;52.046;5.632;2022-08-27T05:48:00;9.5;;;3.4;;
69404;SDS011;57084;52.046;5.632;2022-08-27T05:49:00;9.5;;;3.4;;
69404;SDS011;57084;52.046;5.632;2022-08-27T05:50:00;9.5;;;3.4;;
69404;SDS011;57084;52.046;5.632;2022-08-27T05:51:07;9.5;;;3.4;;
69404;SDS011;57084;52.046;5.632;2022-08-27T05:52:00;9.5;;;3.4;;
69404;SDS011;57084;52.046;5.632;2022-08-27T05:53:00;9.5;;;3.2;;
69404;SDS011;57084;52.046;5.632;2022-08-27T05:54:02;9.5;;;3.2;;
69404;SDS011;57084;52.046;5.632;2022-08-27T05:55:00;9.5;;;3.2;;
69404;SDS011;57084;52.046;5.632;2022-08-27T05:56:00;9.5;;;3.2;;
69404;SDS011;57084;52.046;5.632;2022-08-27T05:57:00;9.5;;;3.2;;
69404;SDS011;57084;52.046;5.632;2022-08-27T05:58:00;9.4;;;3.0;;
69404;SDS011;57084;52.046;5.632;2022-08-27T05:59:00;9.4;;;3.0;;
69404;SDS011;57084;52.046;5.632;2022-08-27T06:00:00;9.4;;;3.0;;
69404;SDS011;57084;52.046;5.632;2022-08-27T06:01:00;9.4;;;3.0;;
69404;SDS011;57084;52.046;5.632;2022-08-27T06:02:00;9.4;;;3.0;;
69404;SDS011;57084;52.046;5.632;2022-08-27T06:03:00;12.4;;;3.4;;
69404;SDS011;57084;52.046;5.632;2022-08-27T06:04:00;12.4;;;3.4;;
69404;SDS011;57084;52.046;5.632;2022-08-27T06:05:00;12.4;;;3.4;;
69404;SDS011;57084;52.046;5.632;2022-08-27T06:06:00;12.4;;;3.4;;
69404;SDS011;57084;52.046;5.632;2022-08-27T06:07:00;12.4;;;3.4;;
69404;SDS011;57084;52.046;5.632;2022-08-27T06:08:00;8.0;;;3.0;;
69404;SDS011;57084;52.046;5.632;2022-08-27T06:09:00;8.0;;;3.0;;
69404;SDS011;57084;52.046;5.632;2022-08-27T06:10:00;8.0;;;3.0;;
69404;SDS011;57084;52.046;5.632;2022-08-27T06:11:00;8.0;;;3.0;;